Time;durP1;ratioP1;P1;durP2;ratioP2;P2;SDS_P1;SDS_P2;PMS_P1;PMS_P2;Temp;Humidity;BMP_temperature;BMP_pressure;BME280_temperature;BME280_humidity;BME280_pressure;Samples;Min_cycle;Max_cycle;Signal;HPM_P1;HPM_P2
2023/06/03 00:01:18;;;;;;;0.10;0.10;;;14.50;99.90;;;;;;5053300;28;20641;-80
2023/06/03 00:03:46;;;;;;;0.30;0.30;;;14.50;99.90;;;;;;5044954;28;20239;-81
2023/06/03 00:06:12;;;;;;;0.10;0.10;;;14.50;99.90;;;;;;5046401;28;20228;-80
2023/06/03 00:08:39;;;;;;;0.10;0.10;;;14.50;99.90;;;;;;5045134;28;20185;-80
2023/06/03 00:11:05;;;;;;;0.10;0.10;;;14.40;99.90;;;;;;5045402;28;20221;-80
2023/06/03 00:13:31;;;;;;;0.10;0.10;;;14.40;99.90;;;;;;5046283;28;20188;-81
2023/06/03 00:15:56;;;;;;;0.10;0.10;;;14.40;99.90;;;;;;5046628;28;20493;-81
2023/06/03 00:18:23;;;;;;;0.63;0.63;;;14.30;99.90;;;;;;5046750;28;20199;-80
2023/06/03 00:20:48;;;;;;;0.10;0.10;;;14.30;99.90;;;;;;5044515;28;20651;-81
2023/06/03 00:23:17;;;;;;;0.10;0.10;;;14.30;99.90;;;;;;5046668;28;20187;-81
2023/06/03 00:25:43;;;;;;;0.10;0.10;;;14.30;99.90;;;;;;5044881;28;20316;-80
2023/06/03 00:28:08;;;;;;;0.10;0.10;;;14.30;99.90;;;;;;5044845;28;20283;-80
2023/06/03 00:30:35;;;;;;;0.10;0.10;;;14.30;99.90;;;;;;5044560;28;20204;-80
2023/06/03 00:33:01;;;;;;;0.10;0.10;;;14.30;99.90;;;;;;5044575;28;20187;-80
2023/06/03 00:35:27;;;;;;;0.10;0.10;;;14.30;99.90;;;;;;5043027;28;20202;-80
2023/06/03 00:37:54;;;;;;;0.10;0.10;;;14.30;99.90;;;;;;5043780;28;20271;-80
2023/06/03 00:40:20;;;;;;;0.10;0.10;;;14.30;99.90;;;;;;5044510;28;20184;-81
2023/06/03 00:42:45;;;;;;;0.10;0.10;;;14.20;99.90;;;;;;5043905;28;20182;-81
2023/06/03 00:45:11;;;;;;;0.10;0.10;;;14.20;99.90;;;;;;5044773;28;20201;-80
2023/06/03 00:47:38;;;;;;;0.10;0.10;;;14.20;99.90;;;;;;5044611;28;20224;-80
2023/06/03 00:50:05;;;;;;;0.10;0.10;;;14.20;99.90;;;;;;5046182;28;20632;-80
2023/06/03 00:52:32;;;;;;;0.10;0.10;;;14.20;99.90;;;;;;5043519;28;20188;-80
2023/06/03 00:54:58;;;;;;;0.10;0.10;;;14.10;99.90;;;;;;5044564;28;20215;-80
2023/06/03 00:57:25;;;;;;;0.10;0.10;;;14.10;99.90;;;;;;5044708;28;20640;-80
2023/06/03 00:59:50;;;;;;;0.10;0.10;;;14.20;99.90;;;;;;5044251;28;20188;-81
2023/06/03 01:02:17;;;;;;;0.10;0.10;;;14.10;99.90;;;;;;5045884;28;20195;-79
2023/06/03 01:04:45;;;;;;;0.10;0.10;;;14.20;99.90;;;;;;5045725;28;20674;-80
2023/06/03 01:07:32;;;;;;;0.10;0.10;;;14.10;99.90;;;;;;5044349;28;20245;-81
2023/06/03 01:10:15;;;;;;;0.10;0.10;;;14.10;99.90;;;;;;5044414;28;20706;-81
2023/06/03 01:13:04;;;;;;;0.10;0.10;;;14.00;99.90;;;;;;5045626;28;21144;-81
2023/06/03 01:15:32;;;;;;;0.10;0.10;;;14.00;99.90;;;;;;5041295;28;20554;-80
2023/06/03 01:18:03;;;;;;;0.10;0.10;;;14.00;99.90;;;;;;5044458;28;20173;-81
2023/06/03 01:20:29;;;;;;;0.10;0.10;;;14.00;99.90;;;;;;5043753;28;20185;-81
2023/06/03 01:23:19;;;;;;;0.10;0.10;;;14.00;99.90;;;;;;5044281;28;20185;-81
2023/06/03 01:25:45;;;;;;;0.10;0.10;;;14.00;99.90;;;;;;5044631;28;20197;-81
2023/06/03 01:28:10;;;;;;;0.10;0.10;;;14.00;99.90;;;;;;5044146;28;20234;-81
2023/06/03 01:30:36;;;;;;;0.10;0.10;;;14.00;99.90;;;;;;5044446;28;20213;-80
2023/06/03 01:33:03;;;;;;;0.10;0.10;;;14.00;99.90;;;;;;5043662;28;20647;-80
2023/06/03 01:35:30;;;;;;;0.10;0.10;;;13.90;99.90;;;;;;5044285;28;20629;-81
2023/06/03 01:37:56;;;;;;;0.10;0.10;;;14.00;99.90;;;;;;5045874;28;20181;-80
2023/06/03 01:40:22;;;;;;;0.10;0.10;;;13.90;99.90;;;;;;5043520;28;20264;-80
2023/06/03 01:42:48;;;;;;;0.10;0.10;;;13.90;99.90;;;;;;5044791;28;20215;-80
2023/06/03 01:45:14;;;;;;;0.10;0.10;;;13.90;99.90;;;;;;5044548;28;20229;-80
2023/06/03 01:47:40;;;;;;;0.00;0.00;;;13.90;99.90;;;;;;5054234;28;20196;-80
2023/06/03 01:50:06;;;;;;;0.10;0.10;;;13.90;99.90;;;;;;5047919;28;20200;-80
2023/06/03 01:52:31;;;;;;;0.10;0.10;;;13.90;99.90;;;;;;5046733;28;20266;-80
2023/06/03 01:54:57;;;;;;;0.30;0.30;;;13.90;99.90;;;;;;5047696;28;20656;-79
2023/06/03 01:57:24;;;;;;;0.10;0.10;;;13.90;99.90;;;;;;5047664;28;20189;-80
2023/06/03 01:59:52;;;;;;;0.10;0.10;;;13.90;99.90;;;;;;5047681;28;20188;-81
2023/06/03 02:02:17;;;;;;;0.00;0.00;;;13.90;99.90;;;;;;5048583;28;20549;-80
2023/06/03 02:04:44;;;;;;;0.10;0.10;;;13.90;99.90;;;;;;5047423;28;20211;-80
2023/06/03 02:07:10;;;;;;;0.10;0.10;;;13.90;99.90;;;;;;5047687;28;20196;-80
2023/06/03 02:09:36;;;;;;;0.10;0.10;;;13.90;99.90;;;;;;5047309;28;21222;-81
2023/06/03 02:12:02;;;;;;;0.10;0.10;;;13.90;99.90;;;;;;5047829;28;20226;-80
2023/06/03 02:14:30;;;;;;;0.10;0.10;;;13.90;99.90;;;;;;5047082;28;20618;-80
2023/06/03 02:16:56;;;;;;;0.10;0.10;;;13.80;99.90;;;;;;5046837;28;20554;-80
2023/06/03 02:19:26;;;;;;;0.10;0.10;;;13.80;99.90;;;;;;5047452;28;20170;-80
2023/06/03 02:21:54;;;;;;;0.10;0.10;;;13.80;99.90;;;;;;5046989;28;20223;-81
2023/06/03 02:24:22;;;;;;;0.10;0.10;;;13.80;99.90;;;;;;5047096;28;20277;-80
2023/06/03 02:26:50;;;;;;;0.10;0.10;;;13.80;99.90;;;;;;5047212;28;20238;-81
2023/06/03 02:29:18;;;;;;;0.10;0.10;;;13.80;99.90;;;;;;5048105;28;20189;-80
2023/06/03 02:31:44;;;;;;;0.10;0.10;;;13.80;99.90;;;;;;5048081;28;20184;-80
2023/06/03 02:34:10;;;;;;;0.03;0.03;;;13.90;99.90;;;;;;5048047;28;20179;-80
2023/06/03 02:36:35;;;;;;;0.10;0.10;;;13.80;99.90;;;;;;5046523;28;20199;-80
2023/06/03 02:39:01;;;;;;;0.10;0.10;;;13.80;99.90;;;;;;5047008;28;20172;-81
2023/06/03 02:41:26;;;;;;;0.10;0.10;;;13.80;99.90;;;;;;5046453;28;20227;-81
2023/06/03 02:43:52;;;;;;;0.10;0.10;;;13.80;99.90;;;;;;5047055;28;20181;-80
2023/06/03 02:46:17;;;;;;;0.10;0.10;;;13.80;99.90;;;;;;5046598;28;20207;-80
2023/06/03 02:48:43;;;;;;;0.10;0.10;;;13.70;99.90;;;;;;5046764;28;20217;-80
2023/06/03 02:51:08;;;;;;;0.10;0.10;;;13.70;99.90;;;;;;5046430;28;20736;-80
2023/06/03 02:53:35;;;;;;;0.10;0.10;;;13.70;99.90;;;;;;5048275;28;20209;-80
2023/06/03 02:56:00;;;;;;;0.10;0.10;;;13.80;99.90;;;;;;5047891;28;20204;-80
2023/06/03 02:58:26;;;;;;;0.10;0.10;;;13.70;99.90;;;;;;5045230;28;20240;-81
2023/06/03 03:00:51;;;;;;;0.00;0.00;;;13.80;99.90;;;;;;5046611;28;20857;-81
2023/06/03 03:03:17;;;;;;;0.10;0.10;;;13.70;99.90;;;;;;5045764;28;20182;-80
2023/06/03 03:05:43;;;;;;;0.10;0.10;;;13.70;99.90;;;;;;5046333;28;20866;-80
2023/06/03 03:08:09;;;;;;;0.10;0.10;;;13.70;99.90;;;;;;5046365;28;20352;-81
2023/06/03 03:10:35;;;;;;;0.10;0.10;;;13.70;99.90;;;;;;5047679;28;20247;-80
2023/06/03 03:13:00;;;;;;;0.10;0.10;;;13.60;99.90;;;;;;5047481;28;20251;-80
2023/06/03 03:15:26;;;;;;;0.07;0.07;;;13.60;99.90;;;;;;5047671;28;20205;-81
2023/06/03 03:17:51;;;;;;;0.10;0.10;;;13.60;99.90;;;;;;5054982;28;20186;-80
2023/06/03 03:20:17;;;;;;;0.10;0.10;;;13.60;99.90;;;;;;5047225;28;20189;-80
2023/06/03 03:22:46;;;;;;;0.10;0.10;;;13.60;99.90;;;;;;5047237;28;20195;-79
2023/06/03 03:25:12;;;;;;;0.10;0.10;;;13.60;99.90;;;;;;5046334;28;20212;-80
2023/06/03 03:27:37;;;;;;;0.10;0.10;;;13.60;99.90;;;;;;5046138;28;20599;-81
2023/06/03 03:30:05;;;;;;;0.10;0.10;;;13.70;99.90;;;;;;5045947;28;20350;-80
2023/06/03 03:32:31;;;;;;;0.10;0.10;;;13.70;99.90;;;;;;5046411;28;20193;-80
2023/06/03 03:35:02;;;;;;;0.10;0.10;;;13.70;99.90;;;;;;5046920;28;20221;-80
2023/06/03 03:37:28;;;;;;;0.10;0.10;;;13.70;99.90;;;;;;5045944;28;20527;-80
2023/06/03 03:39:53;;;;;;;0.10;0.10;;;13.90;99.90;;;;;;5045496;28;20184;-80
2023/06/03 03:42:19;;;;;;;0.10;0.10;;;14.30;99.90;;;;;;5047304;28;20258;-80
2023/06/03 03:44:44;;;;;;;0.10;0.10;;;14.50;99.90;;;;;;5045255;28;20198;-80
2023/06/03 03:47:19;;;;;;;0.10;0.10;;;14.80;99.90;;;;;;5047241;28;20213;-80
2023/06/03 03:49:45;;;;;;;0.10;0.10;;;14.90;99.90;;;;;;5046557;28;20231;-81
2023/06/03 03:52:12;;;;;;;0.10;0.10;;;15.10;99.90;;;;;;5045293;28;20220;-80
2023/06/03 03:54:38;;;;;;;0.10;0.10;;;15.30;99.90;;;;;;5045102;28;20234;-79
2023/06/03 03:57:10;;;;;;;0.10;0.10;;;15.40;99.90;;;;;;5046239;28;20234;-80
2023/06/03 03:59:36;;;;;;;0.10;0.10;;;15.40;99.90;;;;;;5048853;28;20185;-83
2023/06/03 04:02:02;;;;;;;0.10;0.10;;;15.80;99.90;;;;;;5049586;28;20186;-80
2023/06/03 04:04:42;;;;;;;0.10;0.10;;;16.00;99.90;;;;;;5047071;28;21245;-80
2023/06/03 04:07:14;;;;;;;0.10;0.10;;;16.00;99.90;;;;;;5047269;28;20240;-83
2023/06/03 04:09:41;;;;;;;0.10;0.10;;;16.10;99.90;;;;;;5046817;28;20212;-80
2023/06/03 04:12:21;;;;;;;0.10;0.10;;;16.10;99.90;;;;;;5046318;28;21110;-80
2023/06/03 04:14:50;;;;;;;0.10;0.10;;;16.30;99.90;;;;;;5046352;28;20201;-80
2023/06/03 04:17:20;;;;;;;0.63;0.63;;;16.70;99.90;;;;;;5047284;28;20196;-80
2023/06/03 04:19:48;;;;;;;0.10;0.10;;;16.50;99.90;;;;;;5046252;28;20178;-80
2023/06/03 04:22:19;;;;;;;0.10;0.10;;;16.20;99.90;;;;;;5046608;28;20685;-80
2023/06/03 04:24:45;;;;;;;0.10;0.10;;;15.80;99.90;;;;;;5046487;28;20215;-80
2023/06/03 04:27:10;;;;;;;0.10;0.10;;;15.60;99.90;;;;;;5047289;28;20553;-80
2023/06/03 04:29:36;;;;;;;0.10;0.10;;;15.50;99.90;;;;;;5046982;28;20205;-80
2023/06/03 04:32:02;;;;;;;0.10;0.10;;;15.40;99.90;;;;;;5045192;28;20189;-80
2023/06/03 04:34:29;;;;;;;0.10;0.10;;;15.40;99.90;;;;;;5045230;28;20729;-81
2023/06/03 04:36:54;;;;;;;0.10;0.10;;;15.40;99.90;;;;;;5046233;28;20193;-80
2023/06/03 04:39:20;;;;;;;0.10;0.10;;;15.30;99.90;;;;;;5046740;28;20182;-80
2023/06/03 04:41:46;;;;;;;0.10;0.10;;;15.10;99.90;;;;;;5045741;28;20246;-80
2023/06/03 04:44:13;;;;;;;0.10;0.10;;;15.10;99.90;;;;;;5045296;28;20772;-81
2023/06/03 04:46:40;;;;;;;0.10;0.10;;;15.10;99.90;;;;;;5045752;28;20205;-80
2023/06/03 04:49:08;;;;;;;0.10;0.10;;;15.10;99.90;;;;;;5044957;28;20178;-80
2023/06/03 04:51:33;;;;;;;0.10;0.10;;;15.10;99.90;;;;;;5044398;28;20245;-80
2023/06/03 04:54:00;;;;;;;0.10;0.10;;;15.10;99.90;;;;;;5044556;28;20271;-80
2023/06/03 04:56:28;;;;;;;0.10;0.10;;;15.10;99.90;;;;;;5046026;28;20201;-80
2023/06/03 04:58:55;;;;;;;0.10;0.10;;;15.00;99.90;;;;;;5044459;28;20188;-80
2023/06/03 05:01:25;;;;;;;0.10;0.10;;;15.00;99.90;;;;;;5044897;28;20182;-81
2023/06/03 05:03:51;;;;;;;0.10;0.10;;;14.90;99.90;;;;;;5046957;28;20197;-80
2023/06/03 05:06:17;;;;;;;0.10;0.10;;;15.00;99.90;;;;;;5048326;28;20274;-80
2023/06/03 05:08:42;;;;;;;0.10;0.10;;;15.10;99.90;;;;;;5049635;28;20189;-81
2023/06/03 05:11:08;;;;;;;0.10;0.10;;;15.10;99.90;;;;;;5048903;28;20205;-80
2023/06/03 05:13:36;;;;;;;0.10;0.10;;;15.20;99.90;;;;;;5047221;28;20192;-80
2023/06/03 05:16:02;;;;;;;0.10;0.10;;;15.20;99.90;;;;;;5046039;28;20212;-80
2023/06/03 05:18:27;;;;;;;0.10;0.10;;;15.40;99.90;;;;;;5046973;28;20181;-80
2023/06/03 05:20:53;;;;;;;0.10;0.10;;;15.40;99.90;;;;;;5045780;28;20715;-81
2023/06/03 05:23:18;;;;;;;0.10;0.10;;;15.30;99.90;;;;;;5049845;28;20181;-80
2023/06/03 05:25:44;;;;;;;0.10;0.10;;;15.20;99.90;;;;;;5050154;28;20201;-80
2023/06/03 05:28:11;;;;;;;0.30;0.30;;;15.20;99.90;;;;;;5051453;28;20639;-80
2023/06/03 05:30:36;;;;;;;0.10;0.10;;;15.40;99.90;;;;;;5049800;28;20225;-80
2023/06/03 05:33:02;;;;;;;0.10;0.10;;;15.50;99.90;;;;;;5048934;28;20178;-80
2023/06/03 05:35:27;;;;;;;0.10;0.10;;;15.50;99.90;;;;;;5048720;28;20197;-81
2023/06/03 05:37:53;;;;;;;0.10;0.10;;;15.70;99.90;;;;;;5049093;28;20236;-80
2023/06/03 05:40:18;;;;;;;0.10;0.10;;;15.70;99.90;;;;;;5049367;28;20193;-80
2023/06/03 05:42:47;;;;;;;0.10;0.10;;;15.50;99.90;;;;;;5049969;28;20189;-80
2023/06/03 05:45:13;;;;;;;0.10;0.10;;;15.40;99.90;;;;;;5048962;28;20209;-80
2023/06/03 05:47:39;;;;;;;0.10;0.10;;;15.50;99.90;;;;;;5049025;28;20190;-81
2023/06/03 05:50:06;;;;;;;0.10;0.10;;;15.60;99.90;;;;;;5047775;28;20209;-80
2023/06/03 05:52:31;;;;;;;0.10;0.10;;;15.70;99.90;;;;;;5049624;28;20181;-80
2023/06/03 05:54:57;;;;;;;0.10;0.10;;;15.70;99.90;;;;;;5048539;28;20836;-80
2023/06/03 05:57:23;;;;;;;0.10;0.10;;;15.60;99.90;;;;;;5048178;28;20267;-81
2023/06/03 05:59:50;;;;;;;0.10;0.10;;;15.60;99.90;;;;;;5048038;28;20190;-81
2023/06/03 06:02:18;;;;;;;0.10;0.10;;;15.60;99.90;;;;;;5048195;28;20178;-80
2023/06/03 06:04:44;;;;;;;0.10;0.10;;;15.70;99.90;;;;;;5048270;28;20272;-80
2023/06/03 06:07:10;;;;;;;0.10;0.10;;;15.70;99.90;;;;;;5050050;28;20645;-80
2023/06/03 06:09:35;;;;;;;0.00;0.00;;;15.90;99.90;;;;;;5048077;28;20216;-81
2023/06/03 06:12:01;;;;;;;0.10;0.10;;;16.30;99.90;;;;;;5049206;28;20178;-80
2023/06/03 06:14:26;;;;;;;24.27;22.47;;;16.30;99.90;;;;;;5051091;28;20891;-80
2023/06/03 06:16:52;;;;;;;0.10;0.10;;;16.20;99.90;;;;;;5050109;28;20194;-80
2023/06/03 06:19:18;;;;;;;0.10;0.10;;;16.10;99.90;;;;;;5051640;28;20731;-80
2023/06/03 06:21:46;;;;;;;0.10;0.10;;;16.20;99.90;;;;;;5049548;28;20192;-81
2023/06/03 06:24:12;;;;;;;0.10;0.10;;;16.40;99.90;;;;;;5049255;28;20181;-80
2023/06/03 06:26:40;;;;;;;0.10;0.10;;;16.40;99.90;;;;;;5050169;28;20189;-80
2023/06/03 06:29:06;;;;;;;0.10;0.10;;;16.60;99.90;;;;;;5049480;28;20265;-81
2023/06/03 06:31:31;;;;;;;0.10;0.10;;;16.80;99.90;;;;;;5050915;28;20288;-80
2023/06/03 06:33:59;;;;;;;0.10;0.10;;;17.00;99.90;;;;;;5048883;28;20207;-80
2023/06/03 06:36:43;;;;;;;0.10;0.10;;;16.60;99.90;;;;;;5050388;28;20228;-80
2023/06/03 06:39:35;;;;;;;0.10;0.10;;;16.80;99.90;;;;;;5048477;28;20199;-80
2023/06/03 06:42:14;;;;;;;0.10;0.10;;;17.60;99.90;;;;;;5043197;28;20705;-83
2023/06/03 06:44:47;;;;;;;0.10;0.10;;;18.10;99.90;;;;;;5047769;28;20209;-80
2023/06/03 06:47:20;;;;;;;0.10;0.10;;;17.50;99.90;;;;;;5049515;28;20224;-80
2023/06/03 06:49:46;;;;;;;0.10;0.10;;;17.10;99.90;;;;;;5048100;28;20328;-80
2023/06/03 06:52:13;;;;;;;0.10;0.10;;;17.20;99.90;;;;;;5047493;28;20181;-80
2023/06/03 06:54:41;;;;;;;0.10;0.10;;;17.30;99.90;;;;;;5047245;28;20232;-80
2023/06/03 06:57:06;;;;;;;0.10;0.10;;;17.40;99.90;;;;;;5049004;28;20220;-81
2023/06/03 06:59:32;;;;;;;0.10;0.10;;;17.60;99.90;;;;;;5047425;28;20201;-80
2023/06/03 07:01:58;;;;;;;0.10;0.10;;;17.60;99.90;;;;;;5046900;28;20673;-81
2023/06/03 07:04:24;;;;;;;0.10;0.10;;;17.20;99.90;;;;;;5047027;28;20312;-80
2023/06/03 07:06:50;;;;;;;0.10;0.10;;;17.50;99.90;;;;;;5048837;28;20197;-81
2023/06/03 07:09:16;;;;;;;0.10;0.10;;;17.60;99.90;;;;;;5048252;28;20178;-81
2023/06/03 07:11:45;;;;;;;0.10;0.10;;;17.50;99.90;;;;;;5046284;28;20205;-81
2023/06/03 07:14:12;;;;;;;0.10;0.10;;;17.80;99.90;;;;;;5046505;28;20177;-81
2023/06/03 07:16:38;;;;;;;0.10;0.10;;;17.50;99.90;;;;;;5046841;28;20181;-81
2023/06/03 07:19:05;;;;;;;0.10;0.10;;;17.60;99.90;;;;;;5046368;28;20177;-81
2023/06/03 07:21:32;;;;;;;0.10;0.10;;;17.60;99.90;;;;;;5046345;28;20196;-81
2023/06/03 07:23:57;;;;;;;0.10;0.10;;;17.80;99.90;;;;;;5047271;28;20193;-81
2023/06/03 07:26:33;;;;;;;0.10;0.10;;;17.80;99.90;;;;;;5051761;28;20213;-80
2023/06/03 07:28:59;;;;;;;0.10;0.10;;;18.20;99.90;;;;;;5051240;28;20193;-81
2023/06/03 07:31:26;;;;;;;0.10;0.10;;;17.90;99.90;;;;;;5051203;28;20213;-81
2023/06/03 07:33:54;;;;;;;0.10;0.10;;;18.20;99.90;;;;;;5051431;28;20288;-82
2023/06/03 07:36:21;;;;;;;0.10;0.10;;;18.10;99.90;;;;;;5049737;28;20213;-81
2023/06/03 07:39:08;;;;;;;0.10;0.10;;;18.20;99.90;;;;;;5049993;28;20223;-80
2023/06/03 07:41:52;;;;;;;0.10;0.10;;;18.60;99.90;;;;;;5049600;28;20189;-81
2023/06/03 07:44:47;;;;;;;0.10;0.10;;;18.40;99.90;;;;;;5046301;28;20596;-81
2023/06/03 07:47:14;;;;;;;0.10;0.10;;;18.70;99.90;;;;;;5047021;28;20194;-81
2023/06/03 07:49:44;;;;;;;0.10;0.10;;;19.00;99.90;;;;;;5049730;28;20209;-81
2023/06/03 07:52:15;;;;;;;0.10;0.10;;;18.90;99.90;;;;;;5046740;28;20188;-81
2023/06/03 07:54:40;;;;;;;0.10;0.10;;;18.50;99.90;;;;;;5046672;28;21278;-81
2023/06/03 07:57:06;;;;;;;0.10;0.10;;;18.10;99.90;;;;;;5046073;28;20192;-81
2023/06/03 07:59:32;;;;;;;0.10;0.10;;;18.40;99.90;;;;;;5046698;28;20653;-81
2023/06/03 08:01:58;;;;;;;0.10;0.10;;;18.10;99.90;;;;;;5045973;28;20312;-81
2023/06/03 08:04:33;;;;;;;0.10;0.10;;;18.40;99.90;;;;;;5046133;28;20202;-81
2023/06/03 08:07:00;;;;;;;71.77;4.47;;;18.60;99.90;;;;;;5047542;28;20175;-81
2023/06/03 08:09:28;;;;;;;0.10;0.10;;;17.80;99.90;;;;;;5046588;28;20196;-81
2023/06/03 08:11:55;;;;;;;0.10;0.10;;;18.50;99.90;;;;;;5046638;28;20188;-80
2023/06/03 08:14:22;;;;;;;0.10;0.10;;;19.10;99.90;;;;;;5047221;28;20181;-81
2023/06/03 08:16:47;;;;;;;0.10;0.10;;;19.40;99.90;;;;;;5047135;28;20198;-81
2023/06/03 08:19:14;;;;;;;0.10;0.10;;;19.70;99.90;;;;;;5048078;28;20212;-81
2023/06/03 08:21:41;;;;;;;0.10;0.10;;;19.70;99.90;;;;;;5046391;28;20194;-81
2023/06/03 08:24:08;;;;;;;0.10;0.10;;;19.00;99.90;;;;;;5045252;28;20195;-81
2023/06/03 08:26:36;;;;;;;0.10;0.10;;;19.30;99.90;;;;;;5044130;28;20224;-81
2023/06/03 08:29:03;;;;;;;0.10;0.10;;;19.20;99.90;;;;;;5046974;28;20997;-81
2023/06/03 08:31:32;;;;;;;0.10;0.10;;;19.60;99.90;;;;;;5044355;28;20220;-82
2023/06/03 08:33:57;;;;;;;0.10;0.10;;;19.20;99.90;;;;;;5047103;28;20185;-81
2023/06/03 08:36:23;;;;;;;0.10;0.10;;;19.40;99.90;;;;;;5045275;28;20235;-81
2023/06/03 08:38:49;;;;;;;0.10;0.10;;;19.20;99.90;;;;;;5047907;28;20189;-81
2023/06/03 08:41:14;;;;;;;0.10;0.10;;;18.70;99.90;;;;;;5049166;28;20926;-81
2023/06/03 08:43:50;;;;;;;0.10;0.10;;;19.40;99.90;;;;;;5049050;28;21016;-81
2023/06/03 08:46:43;;;;;;;0.10;0.10;;;19.60;99.90;;;;;;5049836;28;20201;-81
2023/06/03 08:49:15;;;;;;;0.10;0.10;;;19.10;99.90;;;;;;5047119;28;20198;-81
2023/06/03 08:51:43;;;;;;;0.10;0.10;;;18.80;99.90;;;;;;5046368;28;20323;-81
2023/06/03 08:54:13;;;;;;;0.10;0.10;;;19.10;99.90;;;;;;5048550;28;20228;-81
2023/06/03 08:56:49;;;;;;;0.10;0.10;;;19.30;99.90;;;;;;5046379;28;20191;-82
2023/06/03 08:59:19;;;;;;;0.10;0.10;;;19.40;99.90;;;;;;5046663;28;20945;-81
2023/06/03 09:01:46;;;;;;;0.10;0.10;;;19.50;99.90;;;;;;5047783;28;20689;-81
2023/06/03 09:04:13;;;;;;;0.20;0.20;;;20.00;99.90;;;;;;5047901;28;20185;-81
2023/06/03 09:06:46;;;;;;;0.10;0.10;;;20.10;99.90;;;;;;5047092;28;20189;-81
2023/06/03 09:09:12;;;;;;;0.10;0.10;;;20.60;99.90;;;;;;5046888;28;20178;-81
2023/06/03 09:11:39;;;;;;;0.10;0.10;;;20.70;99.90;;;;;;5046664;28;20209;-81
2023/06/03 09:14:05;;;;;;;0.10;0.10;;;20.40;99.90;;;;;;5045878;28;20202;-81
2023/06/03 09:16:32;;;;;;;0.10;0.10;;;19.90;99.90;;;;;;5046864;28;20202;-81
2023/06/03 09:18:59;;;;;;;0.10;0.10;;;20.10;99.90;;;;;;5045441;28;20550;-82
2023/06/03 09:21:25;;;;;;;0.10;0.10;;;20.10;99.90;;;;;;5046330;28;20224;-81
2023/06/03 09:23:51;;;;;;;0.10;0.10;;;20.10;99.90;;;;;;5045073;28;20186;-81
2023/06/03 09:26:17;;;;;;;0.10;0.10;;;20.30;99.90;;;;;;5046567;28;20761;-81
2023/06/03 09:28:44;;;;;;;0.10;0.10;;;20.50;99.90;;;;;;5044842;28;20190;-81
2023/06/03 09:31:10;;;;;;;0.10;0.10;;;20.00;99.90;;;;;;5044380;28;20205;-81
2023/06/03 09:33:37;;;;;;;0.10;0.10;;;19.90;99.90;;;;;;5043868;28;20239;-80
2023/06/03 09:36:10;;;;;;;0.10;0.10;;;20.10;99.90;;;;;;5045519;28;20213;-81
2023/06/03 09:38:52;;;;;;;0.10;0.10;;;20.80;99.90;;;;;;5044984;28;20713;-81
2023/06/03 09:41:19;;;;;;;0.10;0.10;;;20.80;99.90;;;;;;5044918;28;20221;-81
2023/06/03 09:43:55;;;;;;;0.10;0.10;;;20.80;99.90;;;;;;5044513;28;20204;-81
2023/06/03 09:46:21;;;;;;;0.10;0.10;;;20.50;99.90;;;;;;5045480;28;20205;-81
2023/06/03 09:48:47;;;;;;;0.10;0.10;;;21.00;99.90;;;;;;5044802;28;20580;-81
2023/06/03 09:51:12;;;;;;;0.10;0.10;;;21.00;99.90;;;;;;5047331;28;20209;-81
2023/06/03 09:53:39;;;;;;;0.10;0.10;;;21.20;99.90;;;;;;5047309;28;20182;-81
2023/06/03 09:56:25;;;;;;;0.10;0.10;;;21.60;99.90;;;;;;5047001;28;20221;-81
2023/06/03 09:59:11;;;;;;;0.10;0.10;;;21.40;99.90;;;;;;5047624;28;20268;-81
2023/06/03 10:01:37;;;;;;;0.10;0.10;;;20.80;99.90;;;;;;5048318;28;20217;-81
2023/06/03 10:04:02;;;;;;;0.10;0.10;;;20.70;99.90;;;;;;5048195;28;20185;-80
2023/06/03 10:06:28;;;;;;;0.10;0.10;;;20.40;99.90;;;;;;5045974;28;20222;-81
2023/06/03 10:08:53;;;;;;;0.10;0.10;;;20.70;99.90;;;;;;5050353;28;20192;-81
2023/06/03 10:11:20;;;;;;;0.10;0.10;;;20.80;99.90;;;;;;5048361;28;20698;-81
2023/06/03 10:13:46;;;;;;;0.10;0.10;;;21.00;99.90;;;;;;5049169;28;20284;-81
2023/06/03 10:16:12;;;;;;;0.10;0.10;;;21.00;99.90;;;;;;5048964;28;20194;-81
2023/06/03 10:18:40;;;;;;;0.10;0.10;;;21.60;99.90;;;;;;5047001;28;20190;-81
2023/06/03 10:21:14;;;;;;;0.10;0.10;;;21.10;99.90;;;;;;5049965;28;20267;-80
2023/06/03 10:23:41;;;;;;;0.10;0.10;;;21.10;99.90;;;;;;5052687;28;20196;-81
2023/06/03 10:26:08;;;;;;;0.10;0.10;;;21.40;99.90;;;;;;5053260;28;20210;-81
2023/06/03 10:28:37;;;;;;;0.10;0.10;;;21.70;99.90;;;;;;5050448;28;20203;-81
2023/06/03 10:31:05;;;;;;;0.10;0.10;;;21.90;99.90;;;;;;5052362;28;20213;-81
2023/06/03 10:33:34;;;;;;;6.23;5.97;;;21.40;99.90;;;;;;5050242;28;21234;-81
2023/06/03 10:36:03;;;;;;;0.10;0.10;;;22.00;99.90;;;;;;5051331;28;20637;-81
2023/06/03 10:38:30;;;;;;;0.10;0.10;;;22.10;99.90;;;;;;5050722;28;20178;-81
2023/06/03 10:40:56;;;;;;;0.10;0.10;;;22.90;99.90;;;;;;5051326;28;20182;-81
2023/06/03 10:43:24;;;;;;;0.10;0.10;;;22.50;99.90;;;;;;5049476;28;20704;-80
2023/06/03 10:45:52;;;;;;;0.10;0.10;;;22.40;99.90;;;;;;5049713;28;20619;-81
2023/06/03 10:48:22;;;;;;;0.10;0.10;;;22.40;99.90;;;;;;5050160;28;20181;-81
2023/06/03 10:50:47;;;;;;;0.10;0.10;;;22.60;99.90;;;;;;5050644;28;20197;-81
2023/06/03 10:53:23;;;;;;;0.10;0.10;;;22.70;99.90;;;;;;5049800;28;20624;-81
2023/06/03 10:56:16;;;;;;;0.10;0.10;;;22.40;99.90;;;;;;5049222;28;20197;-80
2023/06/03 10:58:44;;;;;;;0.10;0.10;;;23.30;99.90;;;;;;5051122;28;20670;-81
2023/06/03 11:01:10;;;;;;;0.10;0.10;;;23.70;99.90;;;;;;5049595;28;20186;-81
2023/06/03 11:04:14;;;;;;;0.10;0.10;;;23.70;99.90;;;;;;5050568;28;20696;-81
2023/06/03 11:06:39;;;;;;;0.10;0.10;;;24.00;99.90;;;;;;5048986;28;20189;-81
2023/06/03 11:09:09;;;;;;;0.10;0.10;;;23.60;99.90;;;;;;5051411;28;20186;-81
2023/06/03 11:11:41;;;;;;;0.10;0.10;;;23.10;99.90;;;;;;5050582;28;20189;-81
2023/06/03 11:14:25;;;;;;;0.10;0.10;;;22.90;99.90;;;;;;5050487;28;20184;-81
2023/06/03 11:16:59;;;;;;;0.20;0.20;;;23.40;99.90;;;;;;5050113;28;20186;-81
2023/06/03 11:19:44;;;;;;;0.10;0.10;;;23.80;99.90;;;;;;5048377;28;20181;-81
2023/06/03 11:22:10;;;;;;;0.10;0.10;;;24.10;99.90;;;;;;5049364;28;20209;-81
2023/06/03 11:24:41;;;;;;;0.10;0.10;;;23.50;99.90;;;;;;5051226;28;20323;-81
2023/06/03 11:27:13;;;;;;;0.10;0.10;;;23.30;99.90;;;;;;5049383;28;20177;-81
2023/06/03 11:29:51;;;;;;;0.20;0.20;;;23.30;99.90;;;;;;5049659;28;20181;-81
2023/06/03 11:32:22;;;;;;;0.10;0.10;;;23.30;99.90;;;;;;5048849;28;20227;-81
2023/06/03 11:35:11;;;;;;;0.10;0.10;;;23.80;99.90;;;;;;5048502;28;20246;-80
2023/06/03 11:37:36;;;;;;;0.10;0.10;;;23.60;99.90;;;;;;5047363;28;20182;-81
2023/06/03 11:40:07;;;;;;;0.10;0.10;;;22.90;99.90;;;;;;5046542;28;20180;-80
2023/06/03 11:42:55;;;;;;;0.10;0.10;;;22.60;99.90;;;;;;5048435;28;20281;-80
2023/06/03 11:45:21;;;;;;;0.10;0.10;;;23.00;99.90;;;;;;5051279;28;20220;-80
2023/06/03 11:48:09;;;;;;;0.10;0.10;;;22.90;99.90;;;;;;5051073;28;20691;-80
2023/06/03 11:50:54;;;;;;;0.10;0.10;;;22.70;99.90;;;;;;5049577;28;20912;-81
2023/06/03 11:53:30;;;;;;;0.10;0.10;;;23.10;99.90;;;;;;5049703;28;20181;-80
2023/06/03 11:56:03;;;;;;;0.10;0.10;;;23.80;99.90;;;;;;5050120;28;20216;-81
2023/06/03 11:58:29;;;;;;;0.10;0.10;;;24.30;99.90;;;;;;5048352;28;20203;-81
2023/06/03 12:01:09;;;;;;;0.10;0.10;;;23.70;99.90;;;;;;5048419;28;20272;-80
2023/06/03 12:03:36;;;;;;;0.10;0.10;;;23.70;99.90;;;;;;5049931;28;20181;-81
2023/06/03 12:06:03;;;;;;;0.10;0.10;;;24.10;99.90;;;;;;5047683;28;20217;-81
2023/06/03 12:08:46;;;;;;;0.10;0.10;;;24.00;99.90;;;;;;5047627;28;20193;-81
2023/06/03 12:11:32;;;;;;;0.10;0.10;;;24.20;99.90;;;;;;5048357;28;20208;-81
2023/06/03 12:13:58;;;;;;;0.10;0.10;;;24.40;99.90;;;;;;5048545;28;20189;-81
2023/06/03 12:16:35;;;;;;;0.10;0.10;;;24.30;99.90;;;;;;5046905;28;20209;-81
2023/06/03 12:19:05;;;;;;;0.10;0.10;;;24.00;99.90;;;;;;5048100;28;20180;-81
2023/06/03 12:21:31;;;;;;;0.10;0.10;;;23.60;99.90;;;;;;5048526;28;20181;-81
2023/06/03 12:23:57;;;;;;;0.10;0.10;;;23.20;99.90;;;;;;5046561;28;20182;-81
2023/06/03 12:26:34;;;;;;;0.10;0.10;;;23.10;99.90;;;;;;5046151;28;20259;-81
2023/06/03 12:29:11;;;;;;;0.10;0.10;;;23.30;99.90;;;;;;5047098;28;20541;-81
2023/06/03 12:31:37;;;;;;;0.10;0.10;;;23.60;99.90;;;;;;5044877;28;20616;-81
2023/06/03 12:34:04;;;;;;;0.10;0.10;;;23.20;99.90;;;;;;5047607;28;20753;-81
2023/06/03 12:36:49;;;;;;;0.10;0.10;;;23.40;99.90;;;;;;5049273;28;20589;-81
2023/06/03 12:39:17;;;;;;;0.10;0.10;;;23.40;99.90;;;;;;5049065;28;20182;-81
2023/06/03 12:41:53;;;;;;;0.20;0.20;;;23.40;99.90;;;;;;5050308;28;20208;-81
2023/06/03 12:44:18;;;;;;;0.10;0.10;;;23.60;99.90;;;;;;5048782;28;20173;-80
2023/06/03 12:46:44;;;;;;;0.10;0.10;;;23.10;99.90;;;;;;5048763;28;20177;-79
2023/06/03 12:49:14;;;;;;;0.10;0.10;;;23.10;99.90;;;;;;5047745;28;20308;-81
2023/06/03 12:51:39;;;;;;;0.10;0.10;;;22.90;99.90;;;;;;5055950;28;20218;-80
2023/06/03 12:54:05;;;;;;;0.60;0.60;;;23.30;99.90;;;;;;5047549;28;20188;-81